Main page
Satellite images 15-day forecastsClimateMarine weather Cyclones Lightning AirportsFAQ Newsletter About
Weather : Europe Africa North America South America Asia Australia-Oceania Others
Languages Contact

London, England

City airport

latitude: 51-30N, longitude: 000-03E, elevation: 5 m


METAR: EGLC 221650Z AUTO VRB02KT 5000 BR BKN009/// 14/13 Q1014
TAF: EGLC 221012Z 2210/2213 16006KT 6000 FEW007 SCT012 TEMPO 2210/2213 3000 RADZ BR BKN007

Time: 17:26 (17:26 UTC)

Current weather observation

The report was made 36 minutes ago, at 16:50 UTC
Wind 2 kt from variable directions
Temperature 14°C
Humidity 94%
Pressure 1014 hPa
Visibility: 5000 m
mist

Change units

Forecast

The report was made 7 hours and 14 minutes ago, at 10:12 UTC
Forecast valid from 22 at 10 UTC to 22 at 13 UTC
Wind 6 kt from the South/Southeast
Visibility: 6000 m
Few clouds at a height of 700 ft
Scattered clouds at a height of 1200 ft
Temporary
from 22 at 10 UTC to 22 at 13 UTC
Visibility: 3000 m
Broken clouds at a height of 700 ft
rain drizzle and mist
The information on this site is subject to a disclaimer
Weather : Europe Africa North America South America Asia Australia-Oceania Others
Satellite images 15-day forecastsClimateMarine weather Cyclones Lightning AirportsFAQ Languages Contact Newsletter About